createdAt,value
2023-06-19T00:01:39.932Z,15.70
2023-06-19T00:04:07.940Z,15.60
2023-06-19T00:06:35.972Z,15.58
2023-06-19T00:09:04.489Z,15.50
2023-06-19T00:11:32.552Z,15.50
2023-06-19T00:14:00.921Z,15.50
2023-06-19T00:16:28.876Z,15.50
2023-06-19T00:18:56.902Z,15.50
2023-06-19T00:21:25.989Z,15.50
2023-06-19T00:23:54.328Z,15.40
2023-06-19T00:26:26.486Z,15.40
2023-06-19T00:28:54.425Z,15.40
2023-06-19T00:31:23.694Z,15.32
2023-06-19T00:33:51.833Z,15.30
2023-06-19T00:36:21.614Z,15.26
2023-06-19T00:38:49.611Z,15.20
2023-06-19T00:41:18.265Z,15.10
2023-06-19T00:43:46.692Z,15.10
2023-06-19T00:46:14.600Z,15.10
2023-06-19T00:48:42.635Z,15.00
2023-06-19T00:51:10.791Z,15.00
2023-06-19T00:53:40.623Z,15.02
2023-06-19T00:56:08.671Z,15.00
2023-06-19T00:58:36.639Z,15.00
2023-06-19T01:01:09.579Z,15.08
2023-06-19T01:03:38.618Z,15.06
2023-06-19T01:06:15.611Z,15.00
2023-06-19T01:09:02.132Z,15.00
2023-06-19T01:11:38.802Z,14.90
2023-06-19T01:14:19.758Z,14.90
2023-06-19T01:16:48.818Z,14.90
2023-06-19T01:19:21.215Z,14.90
2023-06-19T01:21:49.796Z,14.90
2023-06-19T01:24:17.782Z,14.80
2023-06-19T01:26:47.040Z,14.80
2023-06-19T01:29:15.397Z,14.70
2023-06-19T01:31:53.776Z,14.70
2023-06-19T01:34:21.793Z,14.70
2023-06-19T01:36:50.772Z,14.60
2023-06-19T01:39:19.211Z,14.50
2023-06-19T01:41:47.535Z,14.40
2023-06-19T01:44:16.064Z,14.50
2023-06-19T01:46:51.881Z,14.50
2023-06-19T01:49:20.318Z,14.54
2023-06-19T01:51:48.332Z,14.60
2023-06-19T01:54:16.210Z,14.64
2023-06-19T01:56:44.524Z,14.70
2023-06-19T01:59:12.448Z,14.70
2023-06-19T02:01:40.420Z,14.70
2023-06-19T02:04:08.591Z,14.70
2023-06-19T02:06:38.772Z,14.60
2023-06-19T02:09:08.554Z,14.60
2023-06-19T02:11:40.047Z,14.60
2023-06-19T02:14:10.480Z,14.58
2023-06-19T02:16:38.724Z,14.60
2023-06-19T02:19:06.792Z,14.60
2023-06-19T02:21:34.584Z,14.60
2023-06-19T02:24:02.520Z,14.60
2023-06-19T02:26:30.527Z,14.56
2023-06-19T02:28:58.368Z,14.50
2023-06-19T02:31:26.396Z,14.50
2023-06-19T02:33:54.276Z,14.50
2023-06-19T02:36:22.117Z,14.50
2023-06-19T02:38:50.146Z,14.40
2023-06-19T02:41:19.629Z,14.30
2023-06-19T02:43:48.298Z,14.30
2023-06-19T02:46:16.290Z,14.36
2023-06-19T02:48:44.248Z,14.40
2023-06-19T02:51:12.161Z,14.50
2023-06-19T02:53:40.082Z,14.60
2023-06-19T02:56:08.853Z,14.70
2023-06-19T02:58:38.683Z,14.80
2023-06-19T03:01:10.055Z,14.90
2023-06-19T03:03:38.881Z,14.90
2023-06-19T03:06:07.532Z,14.94
2023-06-19T03:08:36.890Z,15.00
2023-06-19T03:11:06.229Z,15.12
2023-06-19T03:13:48.228Z,15.20
2023-06-19T03:16:16.219Z,15.30
2023-06-19T03:18:50.737Z,15.50
2023-06-19T03:21:23.193Z,15.64
2023-06-19T03:23:51.494Z,15.80
2023-06-19T03:26:26.025Z,15.98
2023-06-19T03:28:54.352Z,16.10
2023-06-19T03:31:24.587Z,16.20
2023-06-19T03:33:53.205Z,16.32
2023-06-19T03:36:22.098Z,16.44
2023-06-19T03:38:51.197Z,16.50
2023-06-19T03:41:21.919Z,16.60
2023-06-19T03:43:49.872Z,16.68
2023-06-19T03:46:18.228Z,16.78
2023-06-19T03:48:46.215Z,16.98
2023-06-19T03:51:14.370Z,17.18
2023-06-19T03:53:43.478Z,17.40
2023-06-19T03:56:11.492Z,17.58
2023-06-19T03:58:39.506Z,17.70
2023-06-19T04:01:07.480Z,17.84
2023-06-19T04:03:35.410Z,18.00
2023-06-19T04:06:03.885Z,18.10
2023-06-19T04:08:31.683Z,18.24
2023-06-19T04:10:59.658Z,18.40
2023-06-19T04:13:29.878Z,18.60
2023-06-19T04:15:57.809Z,18.74
2023-06-19T04:18:25.810Z,18.90
2023-06-19T04:20:53.660Z,19.00
2023-06-19T04:23:21.517Z,19.14
2023-06-19T04:25:49.508Z,19.26
2023-06-19T04:28:17.433Z,19.32
2023-06-19T04:30:45.394Z,19.40
2023-06-19T04:33:13.352Z,19.48
2023-06-19T04:35:41.620Z,19.50
2023-06-19T04:38:10.907Z,19.60
2023-06-19T04:40:38.880Z,19.60
2023-06-19T04:43:07.076Z,19.70
2023-06-19T04:45:35.122Z,19.80
2023-06-19T04:48:04.746Z,19.80
2023-06-19T04:50:32.756Z,19.90
2023-06-19T04:53:00.762Z,20.00
2023-06-19T04:55:28.723Z,20.00
2023-06-19T04:57:56.603Z,20.10
2023-06-19T05:00:25.236Z,20.20
2023-06-19T05:02:53.541Z,20.30
2023-06-19T05:05:24.374Z,20.40
2023-06-19T05:07:53.404Z,20.46
2023-06-19T05:10:21.476Z,20.58
2023-06-19T05:12:49.608Z,20.70
2023-06-19T05:15:17.615Z,20.74
2023-06-19T05:17:47.738Z,20.72
2023-06-19T05:20:16.632Z,20.80
2023-06-19T05:22:44.781Z,20.88
2023-06-19T05:25:12.660Z,20.90
2023-06-19T05:27:41.070Z,20.82
2023-06-19T05:30:09.707Z,20.90
2023-06-19T05:32:37.571Z,20.90
2023-06-19T05:35:06.149Z,20.90
2023-06-19T05:37:34.077Z,21.04
2023-06-19T05:40:02.178Z,21.10
2023-06-19T05:42:30.162Z,21.20
2023-06-19T05:44:58.265Z,21.30
2023-06-19T05:47:27.134Z,21.40
2023-06-19T05:49:55.108Z,21.50
2023-06-19T05:52:23.016Z,21.60
2023-06-19T05:54:51.094Z,21.64
2023-06-19T05:57:22.189Z,21.60
2023-06-19T05:59:50.447Z,21.60
2023-06-19T06:02:20.258Z,21.56
2023-06-19T06:04:48.496Z,21.52
2023-06-19T06:07:16.547Z,21.50
2023-06-19T06:09:44.371Z,21.50
2023-06-19T06:12:12.920Z,21.60
2023-06-19T06:14:42.874Z,21.70
2023-06-19T06:17:11.289Z,21.70
2023-06-19T06:19:40.086Z,21.82
2023-06-19T06:22:08.370Z,21.90
2023-06-19T06:24:36.340Z,21.98
2023-06-19T06:27:04.887Z,22.10
2023-06-19T06:29:32.768Z,22.10
2023-06-19T06:32:08.435Z,22.18
2023-06-19T06:34:36.312Z,22.30
2023-06-19T06:37:06.391Z,22.40
2023-06-19T06:39:35.044Z,22.46
2023-06-19T06:42:03.275Z,22.56
2023-06-19T06:44:31.179Z,22.70
2023-06-19T06:46:59.133Z,22.80
2023-06-19T06:49:26.930Z,22.80
2023-06-19T06:51:56.809Z,22.92
2023-06-19T06:54:25.982Z,23.10
2023-06-19T06:56:57.724Z,23.20
2023-06-19T06:59:26.509Z,23.30
2023-06-19T07:01:58.163Z,23.40
2023-06-19T07:04:26.624Z,23.50
2023-06-19T07:06:54.611Z,23.50
2023-06-19T07:09:22.791Z,23.60
2023-06-19T07:11:53.497Z,23.68
2023-06-19T07:14:22.072Z,23.70
2023-06-19T07:16:51.557Z,23.72
2023-06-19T07:19:19.535Z,23.70
2023-06-19T07:21:47.497Z,23.74
2023-06-19T07:24:15.926Z,23.86
2023-06-19T07:26:43.930Z,23.92
2023-06-19T07:29:11.765Z,24.00
2023-06-19T07:31:39.761Z,24.10
2023-06-19T07:34:08.104Z,24.16
2023-06-19T07:36:36.050Z,24.20
2023-06-19T07:39:04.010Z,24.28
2023-06-19T07:41:31.877Z,24.22
2023-06-19T07:44:00.122Z,24.28
2023-06-19T07:46:28.084Z,24.36
2023-06-19T07:48:55.945Z,24.40
2023-06-19T07:51:23.778Z,24.40
2023-06-19T07:53:51.609Z,24.50
2023-06-19T07:56:19.429Z,24.40
2023-06-19T07:58:48.214Z,24.32
2023-06-19T08:01:17.056Z,24.30
2023-06-19T08:03:47.095Z,24.40
2023-06-19T08:06:15.312Z,24.56
2023-06-19T08:08:43.125Z,24.70
2023-06-19T08:11:11.492Z,24.70
2023-06-19T08:13:39.401Z,24.84
2023-06-19T08:16:08.027Z,24.94
2023-06-19T08:18:35.933Z,25.10
2023-06-19T08:21:03.904Z,25.24
2023-06-19T08:23:36.052Z,25.42
2023-06-19T08:26:04.413Z,25.46
2023-06-19T08:28:33.552Z,25.40
2023-06-19T08:31:01.858Z,25.40
2023-06-19T08:33:29.780Z,25.50
2023-06-19T08:35:57.663Z,25.50
2023-06-19T08:38:25.572Z,25.50
2023-06-19T08:40:53.368Z,25.64
2023-06-19T08:43:21.259Z,25.80
2023-06-19T08:46:06.436Z,25.70
2023-06-19T08:48:37.341Z,25.80
2023-06-19T08:51:05.883Z,25.90
2023-06-19T08:53:55.905Z,25.90
2023-06-19T08:56:24.154Z,26.18
2023-06-19T08:58:52.348Z,26.40
2023-06-19T09:01:28.073Z,26.40
2023-06-19T09:03:56.175Z,26.40
2023-06-19T09:06:24.569Z,26.48
2023-06-19T09:09:01.072Z,26.50
2023-06-19T09:11:29.512Z,26.30
2023-06-19T09:13:59.660Z,26.30
2023-06-19T09:16:41.829Z,26.00
2023-06-19T09:19:10.208Z,25.80
2023-06-19T09:21:40.747Z,25.80
2023-06-19T09:24:09.304Z,25.90
2023-06-19T09:26:40.097Z,25.90
2023-06-19T09:29:15.893Z,25.80
2023-06-19T09:31:45.773Z,25.70
2023-06-19T09:34:14.032Z,25.80
2023-06-19T09:36:43.294Z,26.10
2023-06-19T09:39:12.272Z,26.32
2023-06-19T09:41:41.425Z,26.40
2023-06-19T09:44:13.595Z,26.50
2023-06-19T09:46:42.408Z,26.56
2023-06-19T09:49:10.287Z,26.74
2023-06-19T09:51:39.186Z,26.90
2023-06-19T09:54:07.867Z,26.90
2023-06-19T09:56:35.774Z,26.72
2023-06-19T09:59:04.120Z,26.40
2023-06-19T10:01:32.466Z,26.20
2023-06-19T10:04:09.822Z,26.10
2023-06-19T10:06:47.912Z,26.10
2023-06-19T10:09:19.308Z,26.20
2023-06-19T10:11:53.680Z,26.40
2023-06-19T10:14:22.630Z,26.60
2023-06-19T10:16:50.862Z,26.86
2023-06-19T10:19:21.944Z,26.82
2023-06-19T10:21:53.876Z,27.00
2023-06-19T10:24:22.263Z,27.10
2023-06-19T10:27:01.400Z,27.12
2023-06-19T10:29:45.312Z,27.00
2023-06-19T10:32:24.815Z,26.80
2023-06-19T10:34:52.602Z,26.84
2023-06-19T10:37:33.479Z,27.08
2023-06-19T10:40:01.400Z,27.36
2023-06-19T10:42:29.399Z,27.60
2023-06-19T10:45:11.125Z,27.90
2023-06-19T10:47:40.448Z,27.90
2023-06-19T10:50:15.374Z,27.80
2023-06-19T10:52:46.668Z,27.50
2023-06-19T10:55:14.797Z,27.20
2023-06-19T10:57:46.962Z,27.20
2023-06-19T11:00:44.596Z,27.10
2023-06-19T11:03:12.837Z,27.08
2023-06-19T11:05:45.230Z,27.24
2023-06-19T11:08:19.592Z,27.44
2023-06-19T11:10:47.550Z,27.70
2023-06-19T11:13:17.069Z,27.80
2023-06-19T11:15:45.130Z,28.00
2023-06-19T11:18:13.083Z,28.14
2023-06-19T11:20:50.812Z,28.40
2023-06-19T11:23:27.181Z,28.28
2023-06-19T11:25:55.100Z,28.14
2023-06-19T11:28:23.405Z,28.24
2023-06-19T11:31:00.135Z,28.20
2023-06-19T11:33:28.133Z,28.20
2023-06-19T11:35:56.166Z,28.40
2023-06-19T11:38:27.248Z,28.30
2023-06-19T11:40:56.468Z,28.40
2023-06-19T11:43:29.642Z,28.50
2023-06-19T11:46:09.002Z,28.60
2023-06-19T11:48:38.499Z,28.60
2023-06-19T11:51:06.775Z,28.60
2023-06-19T11:53:36.502Z,28.62
2023-06-19T11:56:04.553Z,28.62
2023-06-19T11:58:32.409Z,28.70
2023-06-19T12:01:00.350Z,28.90
2023-06-19T12:03:28.622Z,28.80
2023-06-19T12:05:56.817Z,28.70
2023-06-19T12:08:24.705Z,28.50
2023-06-19T12:10:53.095Z,28.60
2023-06-19T12:13:21.109Z,28.70
2023-06-19T12:15:48.957Z,28.70
2023-06-19T12:18:16.853Z,28.80
2023-06-19T12:20:44.714Z,28.90
2023-06-19T12:23:12.973Z,28.90
2023-06-19T12:25:41.188Z,28.90
2023-06-19T12:28:09.546Z,28.90
2023-06-19T12:30:37.556Z,29.00
2023-06-19T12:33:05.625Z,29.00
2023-06-19T12:35:33.513Z,29.20
2023-06-19T12:38:01.386Z,29.40
2023-06-19T12:40:29.259Z,29.50
2023-06-19T12:42:56.995Z,29.60
2023-06-19T12:45:25.054Z,29.56
2023-06-19T12:47:55.831Z,29.30
2023-06-19T12:50:24.231Z,29.20
2023-06-19T12:52:52.198Z,29.20
2023-06-19T12:55:20.125Z,29.34
2023-06-19T12:57:48.047Z,29.50
2023-06-19T13:00:16.202Z,29.40
2023-06-19T13:02:44.503Z,29.20
2023-06-19T13:05:12.457Z,28.94
2023-06-19T13:07:40.361Z,28.70
2023-06-19T13:10:08.686Z,28.40
2023-06-19T13:12:36.606Z,28.10
2023-06-19T13:15:05.034Z,27.90
2023-06-19T13:17:32.808Z,27.90
2023-06-19T13:20:00.634Z,28.10
2023-06-19T13:22:28.603Z,28.30
2023-06-19T13:24:56.458Z,28.48
2023-06-19T13:27:24.399Z,28.54
2023-06-19T13:29:52.267Z,28.50
2023-06-19T13:32:20.125Z,28.50
2023-06-19T13:34:48.075Z,28.50
2023-06-19T13:37:16.005Z,28.40
2023-06-19T13:39:44.075Z,28.34
2023-06-19T13:42:12.294Z,28.30
2023-06-19T13:44:40.169Z,28.32
2023-06-19T13:47:08.294Z,28.30
2023-06-19T13:49:36.221Z,28.32
2023-06-19T13:52:04.427Z,28.40
2023-06-19T13:54:32.410Z,28.40
2023-06-19T13:57:00.495Z,28.62
2023-06-19T13:59:28.332Z,28.90
2023-06-19T14:01:56.309Z,29.10
2023-06-19T14:04:24.172Z,29.20
2023-06-19T14:06:52.522Z,29.38
2023-06-19T14:09:20.454Z,29.40
2023-06-19T14:11:48.630Z,29.50
2023-06-19T14:14:16.526Z,29.54
2023-06-19T14:16:44.369Z,29.52
2023-06-19T14:19:12.300Z,29.50
2023-06-19T14:21:40.124Z,29.70
2023-06-19T14:24:08.130Z,29.88
2023-06-19T14:26:36.122Z,29.80
2023-06-19T14:29:04.024Z,30.00
2023-06-19T14:31:31.915Z,30.10
2023-06-19T14:33:59.872Z,30.30
2023-06-19T14:36:27.759Z,30.50
2023-06-19T14:38:55.685Z,30.56
2023-06-19T14:41:23.612Z,30.60
2023-06-19T14:43:51.469Z,30.68
2023-06-19T14:46:36.842Z,30.68
2023-06-19T14:49:12.140Z,30.50
2023-06-19T14:51:40.329Z,30.58
2023-06-19T14:54:08.668Z,30.30
2023-06-19T14:56:36.492Z,30.30
2023-06-19T14:59:04.792Z,30.30
2023-06-19T15:01:32.695Z,30.38
2023-06-19T15:04:00.709Z,30.20
2023-06-19T15:06:28.709Z,30.28
2023-06-19T15:08:57.676Z,30.10
2023-06-19T15:11:27.002Z,29.90
2023-06-19T15:13:54.881Z,29.80
2023-06-19T15:16:27.446Z,29.58
2023-06-19T15:18:55.618Z,29.38
2023-06-19T15:21:23.791Z,29.20
2023-06-19T15:23:55.263Z,29.00
2023-06-19T15:26:24.222Z,28.98
2023-06-19T15:28:54.855Z,29.02
2023-06-19T15:31:24.012Z,29.10
2023-06-19T15:33:52.140Z,29.12
2023-06-19T15:36:20.163Z,29.30
2023-06-19T15:38:48.101Z,29.30
2023-06-19T15:41:16.009Z,29.30
2023-06-19T15:43:43.961Z,29.20
2023-06-19T15:46:16.703Z,29.10
2023-06-19T15:48:44.830Z,29.20
2023-06-19T15:51:12.902Z,29.30
2023-06-19T15:53:40.971Z,29.40
2023-06-19T15:56:09.466Z,29.34
2023-06-19T15:58:38.118Z,29.30
2023-06-19T16:01:05.992Z,29.40
2023-06-19T16:03:35.521Z,29.56
2023-06-19T16:06:07.844Z,29.70
2023-06-19T16:08:37.009Z,30.96
2023-06-19T16:11:06.340Z,32.80
2023-06-19T16:13:34.757Z,34.14
2023-06-19T16:16:03.640Z,35.56
2023-06-19T16:18:31.696Z,37.04
2023-06-19T16:21:00.668Z,38.14
2023-06-19T16:23:28.507Z,38.82
2023-06-19T16:25:56.741Z,39.60
2023-06-19T16:28:24.658Z,40.56
2023-06-19T16:30:52.486Z,41.38
2023-06-19T16:33:20.529Z,42.00
2023-06-19T16:35:48.412Z,42.50
2023-06-19T16:38:16.378Z,43.16
2023-06-19T16:40:44.587Z,43.76
2023-06-19T16:43:13.414Z,44.18
2023-06-19T16:45:41.194Z,44.56
2023-06-19T16:48:09.117Z,45.08
2023-06-19T16:50:37.257Z,45.30
2023-06-19T16:53:07.306Z,45.64
2023-06-19T16:55:35.296Z,46.48
2023-06-19T16:58:03.189Z,47.08
2023-06-19T17:00:31.426Z,47.68
2023-06-19T17:02:59.520Z,48.34
2023-06-19T17:05:27.954Z,48.62
2023-06-19T17:07:56.062Z,48.90
2023-06-19T17:10:24.600Z,49.10
2023-06-19T17:12:52.817Z,49.28
2023-06-19T17:15:20.773Z,49.40
2023-06-19T17:17:48.780Z,49.26
2023-06-19T17:20:16.699Z,48.74
2023-06-19T17:22:44.559Z,46.40
2023-06-19T17:25:12.494Z,44.14
2023-06-19T17:27:40.265Z,42.28
2023-06-19T17:30:10.457Z,40.42
2023-06-19T17:32:39.391Z,38.98
2023-06-19T17:35:10.255Z,37.60
2023-06-19T17:37:38.915Z,36.56
2023-06-19T17:40:08.962Z,35.66
2023-06-19T17:42:37.745Z,34.82
2023-06-19T17:45:07.018Z,34.06
2023-06-19T17:47:34.940Z,33.26
2023-06-19T17:50:02.807Z,32.46
2023-06-19T17:52:30.785Z,31.78
2023-06-19T17:54:58.765Z,31.20
2023-06-19T17:57:27.285Z,30.68
2023-06-19T17:59:55.616Z,30.18
2023-06-19T18:02:23.632Z,29.70
2023-06-19T18:04:51.686Z,29.30
2023-06-19T18:07:19.722Z,28.90
2023-06-19T18:09:48.632Z,28.46
2023-06-19T18:12:16.832Z,28.18
2023-06-19T18:14:47.885Z,28.00
2023-06-19T18:17:16.413Z,27.70
2023-06-19T18:19:44.567Z,27.50
2023-06-19T18:22:12.495Z,27.30
2023-06-19T18:24:40.548Z,27.10
2023-06-19T18:27:08.398Z,26.90
2023-06-19T18:29:36.375Z,26.70
2023-06-19T18:32:04.664Z,26.60
2023-06-19T18:34:32.647Z,26.48
2023-06-19T18:37:00.557Z,26.30
2023-06-19T18:39:28.437Z,26.20
2023-06-19T18:41:56.361Z,26.10
2023-06-19T18:44:24.203Z,26.00
2023-06-19T18:46:52.162Z,25.90
2023-06-19T18:49:20.069Z,25.76
2023-06-19T18:51:47.828Z,25.60
2023-06-19T18:54:16.075Z,25.50
2023-06-19T18:56:45.056Z,25.30
2023-06-19T18:59:13.041Z,25.20
2023-06-19T19:01:41.061Z,25.10
2023-06-19T19:04:09.050Z,25.00
2023-06-19T19:06:36.943Z,24.90
2023-06-19T19:09:08.453Z,24.86
2023-06-19T19:11:36.236Z,24.78
2023-06-19T19:14:04.276Z,24.64
2023-06-19T19:16:32.198Z,24.60
2023-06-19T19:19:00.089Z,24.44
2023-06-19T19:21:28.445Z,24.38
2023-06-19T19:23:56.305Z,24.20
2023-06-19T19:26:24.178Z,24.10
2023-06-19T19:28:52.156Z,24.02
2023-06-19T19:31:20.127Z,24.00
2023-06-19T19:33:47.995Z,23.84
2023-06-19T19:36:16.617Z,23.70
2023-06-19T19:38:44.429Z,23.60
2023-06-19T19:41:12.226Z,23.50
2023-06-19T19:43:40.050Z,23.40
2023-06-19T19:46:07.969Z,23.30
2023-06-19T19:48:35.939Z,23.20
2023-06-19T19:51:04.026Z,23.20
2023-06-19T19:53:31.896Z,23.10
2023-06-19T19:55:59.859Z,23.00
2023-06-19T19:58:27.848Z,22.90
2023-06-19T20:00:55.843Z,22.84
2023-06-19T20:03:23.742Z,22.70
2023-06-19T20:05:51.796Z,22.60
2023-06-19T20:08:19.702Z,22.40
2023-06-19T20:10:48.132Z,22.30
2023-06-19T20:13:16.131Z,22.20
2023-06-19T20:15:44.056Z,22.20
2023-06-19T20:18:12.009Z,22.10
2023-06-19T20:20:40.061Z,22.00
2023-06-19T20:23:07.817Z,21.98
2023-06-19T20:25:35.716Z,21.90
2023-06-19T20:28:08.730Z,21.86
2023-06-19T20:30:37.114Z,21.80
2023-06-19T20:33:05.234Z,21.70
2023-06-19T20:35:33.256Z,21.40
2023-06-19T20:38:01.062Z,21.28
2023-06-19T20:40:29.076Z,21.26
2023-06-19T20:42:56.965Z,21.28
2023-06-19T20:45:27.419Z,21.28
2023-06-19T20:47:55.737Z,21.24
2023-06-19T20:50:24.094Z,21.20
2023-06-19T20:52:52.252Z,21.10
2023-06-19T20:55:20.198Z,21.00
2023-06-19T20:57:48.136Z,21.00
2023-06-19T21:00:16.450Z,20.98
2023-06-19T21:02:45.227Z,20.90
2023-06-19T21:05:16.417Z,20.90
2023-06-19T21:07:45.846Z,20.90
2023-06-19T21:10:13.930Z,20.80
2023-06-19T21:12:41.764Z,20.70
2023-06-19T21:15:10.140Z,20.70
2023-06-19T21:17:38.148Z,20.60
2023-06-19T21:20:10.494Z,20.50
2023-06-19T21:22:39.156Z,20.40
2023-06-19T21:25:07.441Z,20.40
2023-06-19T21:27:35.408Z,20.40
2023-06-19T21:30:05.300Z,20.40
2023-06-19T21:32:33.287Z,20.30
2023-06-19T21:35:01.283Z,20.30
2023-06-19T21:37:30.208Z,20.30
2023-06-19T21:39:58.023Z,20.20
2023-06-19T21:42:26.173Z,20.20
2023-06-19T21:44:54.091Z,20.12
2023-06-19T21:47:21.997Z,20.12
2023-06-19T21:49:49.949Z,20.10
2023-06-19T21:52:17.772Z,20.10
2023-06-19T21:54:45.666Z,20.10
2023-06-19T21:57:13.574Z,20.08
2023-06-19T21:59:41.397Z,20.00
2023-06-19T22:02:11.736Z,20.00
2023-06-19T22:04:39.575Z,20.00
2023-06-19T22:07:07.898Z,19.98
2023-06-19T22:09:35.729Z,19.90
2023-06-19T22:12:04.211Z,19.90
2023-06-19T22:14:38.936Z,19.90
2023-06-19T22:17:07.997Z,19.90
2023-06-19T22:19:38.393Z,19.90
2023-06-19T22:22:07.548Z,19.86
2023-06-19T22:24:37.650Z,19.80
2023-06-19T22:27:06.898Z,19.70
2023-06-19T22:29:34.700Z,19.70
2023-06-19T22:32:03.176Z,19.60
2023-06-19T22:34:31.698Z,19.50
2023-06-19T22:36:59.604Z,19.50
2023-06-19T22:39:28.290Z,19.50
2023-06-19T22:41:56.193Z,19.50
2023-06-19T22:44:23.976Z,19.50
2023-06-19T22:46:51.843Z,19.40
2023-06-19T22:49:19.699Z,19.40
2023-06-19T22:51:47.736Z,19.40
2023-06-19T22:54:15.835Z,19.36
2023-06-19T22:56:43.747Z,19.32
2023-06-19T22:59:12.204Z,19.30
2023-06-19T23:01:40.128Z,19.30
2023-06-19T23:04:10.494Z,19.28
2023-06-19T23:06:45.868Z,19.22
2023-06-19T23:09:14.249Z,19.20
2023-06-19T23:11:42.253Z,19.20
2023-06-19T23:14:10.271Z,19.20
2023-06-19T23:16:41.930Z,19.30
2023-06-19T23:19:10.199Z,19.30
2023-06-19T23:21:38.194Z,19.20
2023-06-19T23:24:06.289Z,19.20
2023-06-19T23:26:35.248Z,19.20
2023-06-19T23:29:03.742Z,19.24
2023-06-19T23:31:31.545Z,19.30
2023-06-19T23:34:02.354Z,19.40
2023-06-19T23:36:30.211Z,19.40
2023-06-19T23:38:58.136Z,19.42
2023-06-19T23:41:26.067Z,19.48
2023-06-19T23:43:53.857Z,19.40
2023-06-19T23:46:21.709Z,19.36
2023-06-19T23:48:49.667Z,19.30
2023-06-19T23:51:17.535Z,19.20
2023-06-19T23:53:45.449Z,19.20
2023-06-19T23:56:13.395Z,19.28
2023-06-19T23:58:41.233Z,19.30
